createdAt,value
2019-01-29T00:00:15.322Z,0.00
2019-01-29T00:02:19.459Z,0.00
2019-01-29T00:03:19.692Z,0.00
2019-01-29T00:05:23.852Z,0.00
2019-01-29T00:06:24.088Z,0.00
2019-01-29T00:08:28.241Z,0.00
2019-01-29T00:09:28.473Z,0.00
2019-01-29T00:11:32.611Z,0.00
2019-01-29T00:12:34.697Z,0.00
2019-01-29T00:14:37.002Z,0.00
2019-01-29T00:15:37.240Z,0.00
2019-01-29T00:17:41.402Z,0.00
2019-01-29T00:18:41.695Z,0.00
2019-01-29T00:20:45.780Z,0.00
2019-01-29T00:21:46.012Z,0.00
2019-01-29T00:23:50.172Z,0.00
2019-01-29T00:24:50.406Z,0.00
2019-01-29T00:26:43.478Z,0.00
2019-01-29T00:27:43.709Z,0.00
2019-01-29T00:29:47.872Z,0.00
2019-01-29T00:30:48.105Z,0.00
2019-01-29T00:32:52.244Z,0.00
2019-01-29T00:33:52.480Z,0.00
2019-01-29T00:35:56.637Z,0.00
2019-01-29T00:36:56.873Z,0.00
2019-01-29T00:39:01.032Z,0.00
2019-01-29T00:40:01.265Z,0.00
2019-01-29T00:42:05.405Z,0.00
2019-01-29T00:43:05.640Z,0.00
2019-01-29T00:45:09.801Z,0.00
2019-01-29T00:46:10.039Z,0.00
2019-01-29T00:48:14.208Z,0.00
2019-01-29T00:49:14.441Z,0.00
2019-01-29T00:51:18.582Z,0.00
2019-01-29T00:52:18.817Z,0.00
2019-01-29T00:54:22.979Z,0.00
2019-01-29T00:55:23.214Z,0.00
2019-01-29T00:57:27.350Z,0.00
2019-01-29T00:58:27.588Z,0.00
2019-01-29T01:00:31.745Z,0.00
2019-01-29T01:01:31.979Z,0.00
2019-01-29T01:03:36.136Z,0.00
2019-01-29T01:04:36.370Z,0.00
2019-01-29T01:06:29.437Z,0.00
2019-01-29T01:07:29.672Z,0.00
2019-01-29T01:09:33.843Z,0.00
2019-01-29T01:10:34.069Z,0.00
2019-01-29T01:12:38.261Z,0.00
2019-01-29T01:13:38.441Z,0.00
2019-01-29T01:15:42.602Z,0.00
2019-01-29T01:16:42.836Z,0.00
2019-01-29T01:18:46.996Z,0.00
2019-01-29T01:19:47.229Z,0.00
2019-01-29T01:21:51.399Z,0.00
2019-01-29T01:22:51.630Z,0.00
2019-01-29T01:24:55.766Z,0.00
2019-01-29T01:25:56.002Z,0.00
2019-01-29T01:28:00.153Z,0.00
2019-01-29T01:29:00.376Z,0.00
2019-01-29T01:31:04.537Z,0.00
2019-01-29T01:32:04.772Z,0.00
2019-01-29T01:34:08.935Z,0.00
2019-01-29T01:35:09.174Z,0.00
2019-01-29T01:37:13.312Z,0.00
2019-01-29T01:38:13.549Z,0.00
2019-01-29T01:40:17.707Z,0.00
2019-01-29T01:41:17.945Z,0.00
2019-01-29T01:43:22.084Z,0.00
2019-01-29T01:44:22.322Z,0.00
2019-01-29T01:46:15.413Z,0.00
2019-01-29T01:47:15.650Z,0.00
2019-01-29T01:49:19.810Z,0.00
2019-01-29T01:50:20.043Z,0.00
2019-01-29T01:52:24.180Z,0.00
2019-01-29T01:53:24.411Z,0.00
2019-01-29T01:55:28.569Z,0.00
2019-01-29T01:56:28.800Z,0.00
2019-01-29T01:58:32.941Z,0.00
2019-01-29T01:59:33.176Z,0.00
2019-01-29T02:01:37.337Z,0.00
2019-01-29T02:02:37.573Z,0.00
2019-01-29T02:04:41.733Z,0.00
2019-01-29T02:05:41.971Z,0.00
2019-01-29T02:07:46.111Z,0.00
2019-01-29T02:08:46.350Z,0.00
2019-01-29T02:10:50.508Z,0.00
2019-01-29T02:11:50.744Z,0.00
2019-01-29T02:13:54.882Z,0.00
2019-01-29T02:14:55.114Z,0.00
2019-01-29T02:16:48.201Z,0.00
2019-01-29T02:17:48.435Z,0.00
2019-01-29T02:19:52.595Z,0.00
2019-01-29T02:20:52.826Z,0.00
2019-01-29T02:22:56.966Z,0.00
2019-01-29T02:23:57.201Z,0.00
2019-01-29T02:26:01.365Z,0.00
2019-01-29T02:27:01.598Z,0.00
2019-01-29T02:29:05.741Z,0.00
2019-01-29T02:30:05.977Z,0.00
2019-01-29T02:32:10.136Z,0.00
2019-01-29T02:33:10.368Z,0.00
2019-01-29T02:35:14.532Z,0.00
2019-01-29T02:36:14.765Z,0.00
2019-01-29T02:38:18.911Z,0.00
2019-01-29T02:39:19.143Z,0.00
2019-01-29T02:41:23.301Z,0.00
2019-01-29T02:42:23.542Z,0.00
2019-01-29T02:44:27.677Z,0.00
2019-01-29T02:45:27.946Z,0.00
2019-01-29T02:47:32.074Z,0.00
2019-01-29T02:48:32.307Z,0.00
2019-01-29T02:50:36.467Z,0.00
2019-01-29T02:51:36.705Z,0.00
2019-01-29T02:53:40.844Z,0.00
2019-01-29T02:54:41.080Z,0.00
2019-01-29T02:56:34.172Z,0.00
2019-01-29T02:57:34.404Z,0.00
2019-01-29T02:59:38.546Z,0.00
2019-01-29T03:00:38.783Z,0.00
2019-01-29T03:02:42.950Z,0.00
2019-01-29T03:03:43.188Z,0.00
2019-01-29T03:05:47.354Z,0.00
2019-01-29T03:06:47.643Z,0.00
2019-01-29T03:08:51.713Z,0.00
2019-01-29T03:09:51.944Z,0.00
2019-01-29T03:11:56.100Z,0.00
2019-01-29T03:12:56.333Z,0.00
2019-01-29T03:15:00.476Z,0.00
2019-01-29T03:16:00.712Z,0.00
2019-01-29T03:18:04.865Z,0.00
2019-01-29T03:19:05.100Z,0.00
2019-01-29T03:21:09.264Z,0.00
2019-01-29T03:22:09.499Z,0.00
2019-01-29T03:24:13.640Z,0.00
2019-01-29T03:25:13.878Z,0.00
2019-01-29T03:27:18.034Z,0.00
2019-01-29T03:28:18.270Z,0.00
2019-01-29T03:30:22.415Z,0.00
2019-01-29T03:31:22.654Z,0.00
2019-01-29T03:33:26.813Z,0.00
2019-01-29T03:34:27.046Z,0.00
2019-01-29T03:36:20.143Z,0.00
2019-01-29T03:37:20.376Z,0.00
2019-01-29T03:39:24.514Z,0.00
2019-01-29T03:40:24.750Z,0.00
2019-01-29T03:42:28.912Z,0.00
2019-01-29T03:43:29.152Z,0.00
2019-01-29T03:45:33.293Z,0.00
2019-01-29T03:46:33.527Z,0.00
2019-01-29T03:48:37.692Z,0.00
2019-01-29T03:49:37.928Z,0.00
2019-01-29T03:51:42.095Z,0.00
2019-01-29T03:52:42.328Z,0.00
2019-01-29T03:54:46.466Z,0.00
2019-01-29T03:55:46.705Z,0.00
2019-01-29T03:57:50.868Z,0.00
2019-01-29T03:58:51.116Z,0.00
2019-01-29T04:00:55.252Z,0.00
2019-01-29T04:01:55.482Z,0.00
2019-01-29T04:03:59.643Z,0.00
2019-01-29T04:04:59.881Z,0.00
2019-01-29T04:06:52.978Z,0.00
2019-01-29T04:07:53.212Z,0.00
2019-01-29T04:09:57.360Z,0.00
2019-01-29T04:10:57.589Z,0.00
2019-01-29T04:13:01.760Z,0.00
2019-01-29T04:14:01.988Z,0.00
2019-01-29T04:16:06.128Z,0.00
2019-01-29T04:17:06.365Z,0.00
2019-01-29T04:19:10.530Z,0.00
2019-01-29T04:20:10.763Z,0.00
2019-01-29T04:22:14.945Z,0.00
2019-01-29T04:23:15.177Z,0.00
2019-01-29T04:25:19.317Z,0.00
2019-01-29T04:26:19.553Z,0.00
2019-01-29T04:28:23.717Z,0.00
2019-01-29T04:29:23.954Z,0.00
2019-01-29T04:31:28.089Z,0.00
2019-01-29T04:32:28.320Z,0.00
2019-01-29T04:34:32.490Z,0.00
2019-01-29T04:35:32.729Z,0.00
2019-01-29T04:37:36.884Z,0.00
2019-01-29T04:38:37.122Z,0.00
2019-01-29T04:40:41.265Z,0.00
2019-01-29T04:41:41.502Z,0.00
2019-01-29T04:43:45.665Z,0.00
2019-01-29T04:44:45.902Z,0.00
2019-01-29T04:46:38.968Z,0.00
2019-01-29T04:47:39.203Z,0.00
2019-01-29T04:49:43.371Z,0.00
2019-01-29T04:50:43.600Z,0.00
2019-01-29T04:52:47.762Z,0.00
2019-01-29T04:53:56.842Z,0.00
2019-01-29T04:55:52.140Z,0.00
2019-01-29T04:56:52.375Z,0.00
2019-01-29T04:58:56.538Z,0.00
2019-01-29T04:59:56.770Z,0.00
2019-01-29T05:02:00.911Z,0.00
2019-01-29T05:03:01.150Z,0.00
2019-01-29T05:05:05.314Z,0.00
2019-01-29T05:06:05.546Z,0.00
2019-01-29T05:08:09.717Z,0.00
2019-01-29T05:09:09.954Z,0.00
2019-01-29T05:11:14.092Z,0.00
2019-01-29T05:12:14.341Z,0.00
2019-01-29T05:14:18.490Z,0.00
2019-01-29T05:15:18.724Z,0.00
2019-01-29T05:17:22.893Z,0.00
2019-01-29T05:18:23.128Z,0.00
2019-01-29T05:20:27.292Z,0.00
2019-01-29T05:21:27.524Z,0.00
2019-01-29T05:23:31.670Z,0.00
2019-01-29T05:24:31.903Z,0.00
2019-01-29T05:26:25.005Z,0.00
2019-01-29T05:27:25.233Z,0.00
2019-01-29T05:29:29.376Z,0.00
2019-01-29T05:30:29.610Z,0.00
2019-01-29T05:32:33.773Z,0.00
2019-01-29T05:33:34.007Z,0.00
2019-01-29T05:35:38.167Z,0.00
2019-01-29T05:36:38.402Z,0.00
2019-01-29T05:38:42.540Z,0.00
2019-01-29T05:39:42.776Z,0.00
2019-01-29T05:41:46.932Z,0.00
2019-01-29T05:42:47.175Z,0.00
2019-01-29T05:44:51.308Z,0.00
2019-01-29T05:45:51.546Z,0.00
2019-01-29T05:47:55.842Z,0.00
2019-01-29T05:48:55.940Z,0.00
2019-01-29T05:51:00.115Z,0.00
2019-01-29T05:52:00.355Z,0.00
2019-01-29T05:54:04.488Z,0.00
2019-01-29T05:55:04.731Z,0.00
2019-01-29T05:56:57.814Z,0.00
2019-01-29T05:57:58.051Z,0.00
2019-01-29T06:00:02.248Z,0.00
2019-01-29T06:01:02.474Z,0.00
2019-01-29T06:03:06.631Z,0.00
2019-01-29T06:04:06.866Z,0.00
2019-01-29T06:06:11.005Z,0.00
2019-01-29T06:07:11.239Z,0.00
2019-01-29T06:09:15.401Z,0.00
2019-01-29T06:10:15.637Z,0.00
2019-01-29T06:12:19.797Z,0.00
2019-01-29T06:13:20.027Z,0.00
2019-01-29T06:15:24.167Z,0.00
2019-01-29T06:16:24.403Z,0.00
2019-01-29T06:18:28.561Z,0.00
2019-01-29T06:19:28.800Z,0.00
2019-01-29T06:21:32.936Z,0.00
2019-01-29T06:22:33.174Z,0.00
2019-01-29T06:24:37.329Z,0.00
2019-01-29T06:25:39.281Z,0.00
2019-01-29T06:27:41.728Z,0.00
2019-01-29T06:28:41.964Z,0.00
2019-01-29T06:30:46.108Z,0.00
2019-01-29T06:31:46.422Z,0.00
2019-01-29T06:33:50.578Z,0.00
2019-01-29T06:34:50.814Z,0.00
2019-01-29T06:36:43.883Z,0.00
2019-01-29T06:37:44.115Z,0.00
2019-01-29T06:39:48.273Z,0.00
2019-01-29T06:40:48.507Z,0.00
2019-01-29T06:42:52.673Z,0.00
2019-01-29T06:43:52.898Z,0.00
2019-01-29T06:45:57.046Z,0.00
2019-01-29T06:46:57.281Z,0.00
2019-01-29T06:49:01.441Z,0.00
2019-01-29T06:50:01.674Z,0.00
2019-01-29T06:52:05.811Z,5.63
2019-01-29T06:53:06.047Z,5.63
2019-01-29T06:55:10.206Z,5.63
2019-01-29T06:56:10.440Z,11.25
2019-01-29T06:58:14.603Z,11.25
2019-01-29T06:59:14.833Z,11.25
2019-01-29T07:01:18.976Z,11.25
2019-01-29T07:02:19.211Z,11.25
2019-01-29T07:04:23.371Z,16.88
2019-01-29T07:05:23.606Z,16.88
2019-01-29T07:07:27.745Z,22.50
2019-01-29T07:08:27.983Z,22.50
2019-01-29T07:10:32.147Z,28.13
2019-01-29T07:11:32.383Z,33.75
2019-01-29T07:13:36.546Z,45.00
2019-01-29T07:14:36.782Z,45.00
2019-01-29T07:16:29.852Z,50.63
2019-01-29T07:17:30.086Z,50.63
2019-01-29T07:19:34.247Z,50.63
2019-01-29T07:20:34.487Z,45.00
2019-01-29T07:22:38.624Z,50.63
2019-01-29T07:23:38.865Z,56.25
2019-01-29T07:25:43.028Z,61.88
2019-01-29T07:26:43.263Z,61.88
2019-01-29T07:28:47.429Z,67.50
2019-01-29T07:29:47.667Z,73.13
2019-01-29T07:31:51.802Z,78.75
2019-01-29T07:32:52.036Z,84.38
2019-01-29T07:34:56.206Z,90.00
2019-01-29T07:35:56.439Z,90.00
2019-01-29T07:38:00.577Z,95.63
2019-01-29T07:39:00.814Z,95.63
2019-01-29T07:41:04.972Z,90.00
2019-01-29T07:42:05.207Z,90.00
2019-01-29T07:44:09.366Z,84.38
2019-01-29T07:45:09.603Z,84.38
2019-01-29T07:47:13.743Z,90.00
2019-01-29T07:48:13.980Z,90.00
2019-01-29T07:50:18.142Z,106.88
2019-01-29T07:51:18.379Z,112.50
2019-01-29T07:53:22.564Z,118.13
2019-01-29T07:54:22.829Z,118.13
2019-01-29T07:56:15.914Z,129.38
2019-01-29T07:57:16.187Z,135.00
2019-01-29T07:59:32.327Z,157.50
2019-01-29T08:00:20.584Z,157.50
2019-01-29T08:02:24.737Z,151.88
2019-01-29T08:03:24.970Z,157.50
2019-01-29T08:05:29.135Z,174.38
2019-01-29T08:06:29.369Z,191.25
2019-01-29T08:08:33.506Z,208.13
2019-01-29T08:09:33.741Z,208.13
2019-01-29T08:11:37.901Z,225.00
2019-01-29T08:12:38.134Z,241.88
2019-01-29T08:14:42.304Z,258.75
2019-01-29T08:15:42.539Z,264.38
2019-01-29T08:17:46.679Z,253.13
2019-01-29T08:18:46.911Z,253.13
2019-01-29T08:20:51.068Z,258.75
2019-01-29T08:21:51.302Z,253.13
2019-01-29T08:23:55.452Z,298.13
2019-01-29T08:25:01.899Z,303.75
2019-01-29T08:26:48.775Z,315.00
2019-01-29T08:27:49.007Z,315.00
2019-01-29T08:29:53.148Z,281.25
2019-01-29T08:30:53.432Z,258.75
2019-01-29T08:32:57.602Z,230.63
2019-01-29T08:33:57.836Z,225.00
2019-01-29T08:36:02.035Z,281.25
2019-01-29T08:37:02.268Z,337.50
2019-01-29T08:39:06.417Z,365.63
2019-01-29T08:40:06.650Z,376.88
2019-01-29T08:42:10.848Z,360.00
2019-01-29T08:43:11.084Z,371.25
2019-01-29T08:45:15.319Z,399.38
2019-01-29T08:46:15.562Z,388.13
2019-01-29T08:48:19.724Z,433.13
2019-01-29T08:49:19.954Z,483.75
2019-01-29T08:51:24.167Z,348.75
2019-01-29T08:52:24.407Z,331.88
2019-01-29T08:54:28.560Z,365.63
2019-01-29T08:55:28.795Z,365.63
2019-01-29T08:57:34.026Z,399.38
2019-01-29T08:58:34.261Z,438.75
2019-01-29T09:00:38.423Z,450.00
2019-01-29T09:01:38.662Z,472.50
2019-01-29T09:03:42.806Z,1029.38
2019-01-29T09:04:43.049Z,1198.13
2019-01-29T09:06:36.131Z,500.63
2019-01-29T09:07:36.365Z,455.63
2019-01-29T09:09:40.507Z,427.50
2019-01-29T09:10:40.748Z,421.88
2019-01-29T09:12:44.907Z,410.63
2019-01-29T09:13:45.144Z,410.63
2019-01-29T09:15:49.319Z,405.00
2019-01-29T09:16:49.553Z,410.63
2019-01-29T09:18:53.741Z,405.00
2019-01-29T09:19:53.972Z,399.38
2019-01-29T09:21:58.135Z,382.50
2019-01-29T09:22:58.373Z,382.50
2019-01-29T09:25:02.547Z,399.38
2019-01-29T09:26:02.783Z,399.38
2019-01-29T09:28:06.943Z,399.38
2019-01-29T09:29:07.176Z,376.88
2019-01-29T09:31:11.339Z,388.13
2019-01-29T09:32:11.574Z,371.25
2019-01-29T09:34:15.757Z,371.25
2019-01-29T09:35:16.025Z,354.38
2019-01-29T09:37:20.147Z,365.63
2019-01-29T09:38:20.477Z,326.25
2019-01-29T09:40:24.592Z,281.25
2019-01-29T09:41:24.887Z,270.00
2019-01-29T09:43:29.087Z,253.13
2019-01-29T09:44:29.311Z,236.25
2019-01-29T09:46:22.407Z,219.38
2019-01-29T09:47:22.663Z,208.13
2019-01-29T09:49:26.838Z,196.88
2019-01-29T09:50:27.082Z,196.88
2019-01-29T09:52:31.245Z,191.25
2019-01-29T09:53:31.479Z,180.00
2019-01-29T09:55:35.649Z,180.00
2019-01-29T09:56:35.892Z,185.63
2019-01-29T09:58:40.055Z,191.25
2019-01-29T09:59:40.326Z,196.88
2019-01-29T10:01:44.535Z,213.75
2019-01-29T10:02:44.771Z,225.00
2019-01-29T10:04:48.921Z,258.75
2019-01-29T10:05:49.151Z,292.50
2019-01-29T10:07:53.311Z,337.50
2019-01-29T10:08:53.605Z,382.50
2019-01-29T10:10:57.746Z,427.50
2019-01-29T10:11:57.982Z,438.75
2019-01-29T10:14:02.185Z,461.25
2019-01-29T10:15:02.460Z,466.88
2019-01-29T10:16:55.579Z,478.13
2019-01-29T10:17:55.814Z,478.13
2019-01-29T10:20:02.698Z,489.38
2019-01-29T10:21:00.216Z,489.38
2019-01-29T10:23:04.467Z,472.50
2019-01-29T10:24:04.658Z,466.88
2019-01-29T10:26:08.797Z,472.50
2019-01-29T10:27:09.065Z,483.75
2019-01-29T10:29:13.274Z,472.50
2019-01-29T10:30:13.506Z,478.13
2019-01-29T10:32:17.648Z,500.63
2019-01-29T10:33:17.927Z,523.13
2019-01-29T10:35:22.175Z,551.25
2019-01-29T10:36:22.410Z,551.25
2019-01-29T10:38:26.593Z,545.63
2019-01-29T10:39:26.866Z,545.63
2019-01-29T10:41:31.021Z,601.88
2019-01-29T10:42:31.268Z,607.50
2019-01-29T10:44:35.429Z,601.88
2019-01-29T10:45:35.701Z,601.88
2019-01-29T10:47:39.844Z,590.63
2019-01-29T10:48:40.107Z,579.38
2019-01-29T10:50:44.296Z,545.63
2019-01-29T10:51:44.529Z,534.38
2019-01-29T10:53:48.695Z,528.75
2019-01-29T10:54:48.985Z,534.38
2019-01-29T10:56:42.019Z,528.75
2019-01-29T10:57:42.259Z,551.25
2019-01-29T10:59:46.421Z,596.25
2019-01-29T11:00:46.695Z,607.50
2019-01-29T11:02:50.855Z,624.38
2019-01-29T11:03:51.111Z,613.13
2019-01-29T11:05:55.281Z,601.88
2019-01-29T11:06:55.515Z,624.38
2019-01-29T11:08:59.748Z,646.88
2019-01-29T11:09:59.977Z,663.75
2019-01-29T11:12:04.123Z,691.88
2019-01-29T11:13:04.386Z,708.75
2019-01-29T11:15:08.591Z,765.00
2019-01-29T11:16:08.821Z,781.88
2019-01-29T11:18:12.986Z,787.50
2019-01-29T11:19:13.228Z,781.88
2019-01-29T11:21:17.362Z,781.88
2019-01-29T11:22:17.603Z,888.75
2019-01-29T11:24:21.761Z,1209.38
2019-01-29T11:25:21.996Z,1158.75
2019-01-29T11:27:26.142Z,832.50
2019-01-29T11:28:26.377Z,821.25
2019-01-29T11:30:30.554Z,663.75
2019-01-29T11:31:30.842Z,523.13
2019-01-29T11:33:35.020Z,343.13
2019-01-29T11:34:35.256Z,320.63
2019-01-29T11:36:28.330Z,326.25
2019-01-29T11:37:28.568Z,343.13
2019-01-29T11:39:32.794Z,438.75
2019-01-29T11:40:33.012Z,466.88
2019-01-29T11:42:37.223Z,545.63
2019-01-29T11:43:37.461Z,545.63
2019-01-29T11:45:41.621Z,540.00
2019-01-29T11:46:41.860Z,630.00
2019-01-29T11:48:46.018Z,725.63
2019-01-29T11:49:46.254Z,742.50
2019-01-29T11:51:50.413Z,697.50
2019-01-29T11:52:50.638Z,680.63
2019-01-29T11:54:54.800Z,1181.25
2019-01-29T11:55:55.035Z,1012.50
2019-01-29T11:57:59.178Z,815.63
2019-01-29T11:58:59.413Z,826.88
2019-01-29T12:01:04.636Z,877.50
2019-01-29T12:02:03.812Z,984.38
2019-01-29T12:04:07.976Z,1687.50
2019-01-29T12:05:08.211Z,2171.25
2019-01-29T12:07:12.356Z,3425.63
2019-01-29T12:08:12.592Z,1929.38
2019-01-29T12:10:16.759Z,984.38
2019-01-29T12:11:16.995Z,883.13
2019-01-29T12:13:21.140Z,804.38
2019-01-29T12:14:21.376Z,759.38
2019-01-29T12:16:14.485Z,905.63
2019-01-29T12:17:14.708Z,950.63
2019-01-29T12:19:18.853Z,748.13
2019-01-29T12:20:19.092Z,720.00
2019-01-29T12:22:23.259Z,815.63
2019-01-29T12:23:23.494Z,900.00
2019-01-29T12:25:27.735Z,1603.13
2019-01-29T12:26:27.897Z,630.00
2019-01-29T12:28:32.045Z,556.88
2019-01-29T12:29:32.286Z,585.00
2019-01-29T12:31:36.450Z,618.75
2019-01-29T12:32:36.686Z,585.00
2019-01-29T12:34:40.830Z,607.50
2019-01-29T12:35:41.067Z,517.50
2019-01-29T12:37:45.236Z,433.13
2019-01-29T12:38:45.472Z,410.63
2019-01-29T12:40:49.635Z,388.13
2019-01-29T12:41:49.875Z,399.38
2019-01-29T12:43:54.014Z,427.50
2019-01-29T12:44:54.255Z,472.50
2019-01-29T12:46:47.345Z,511.88
2019-01-29T12:47:47.580Z,478.13
2019-01-29T12:49:51.724Z,405.00
2019-01-29T12:50:51.965Z,376.88
2019-01-29T12:52:56.125Z,298.13
2019-01-29T12:53:56.360Z,275.63
2019-01-29T12:56:00.524Z,275.63
2019-01-29T12:57:00.759Z,292.50
2019-01-29T12:59:04.903Z,326.25
2019-01-29T13:00:05.137Z,365.63
2019-01-29T13:02:09.306Z,450.00
2019-01-29T13:03:09.543Z,461.25
2019-01-29T13:05:13.682Z,489.38
2019-01-29T13:06:13.921Z,483.75
2019-01-29T13:08:18.184Z,534.38
2019-01-29T13:09:18.412Z,562.50
2019-01-29T13:11:22.734Z,568.13
2019-01-29T13:12:23.085Z,601.88
2019-01-29T13:14:27.236Z,691.88
2019-01-29T13:15:27.471Z,793.13
2019-01-29T13:17:31.636Z,736.88
2019-01-29T13:18:31.872Z,607.50
2019-01-29T13:20:36.092Z,585.00
2019-01-29T13:21:36.305Z,742.50
2019-01-29T13:23:40.511Z,1243.13
2019-01-29T13:24:40.855Z,1434.38
2019-01-29T13:26:34.015Z,2272.50
2019-01-29T13:27:34.276Z,1271.25
2019-01-29T13:29:38.465Z,1068.75
2019-01-29T13:30:38.746Z,933.75
2019-01-29T13:32:42.959Z,832.50
2019-01-29T13:33:43.240Z,849.38
2019-01-29T13:35:47.419Z,753.75
2019-01-29T13:36:47.652Z,759.38
2019-01-29T13:38:51.914Z,703.13
2019-01-29T13:39:52.210Z,691.88
2019-01-29T13:41:56.393Z,613.13
2019-01-29T13:42:56.684Z,590.63
2019-01-29T13:45:00.872Z,663.75
2019-01-29T13:46:01.105Z,765.00
2019-01-29T13:48:05.339Z,748.13
2019-01-29T13:49:05.645Z,697.50
2019-01-29T13:51:09.794Z,675.00
2019-01-29T13:52:10.042Z,652.50
2019-01-29T13:54:14.206Z,641.25
2019-01-29T13:55:14.442Z,652.50
2019-01-29T13:57:18.610Z,652.50
2019-01-29T13:58:18.849Z,652.50
2019-01-29T14:00:22.993Z,680.63
2019-01-29T14:01:23.274Z,753.75
2019-01-29T14:03:27.450Z,540.00
2019-01-29T14:04:27.686Z,495.00
2019-01-29T14:06:20.759Z,455.63
2019-01-29T14:07:20.995Z,455.63
2019-01-29T14:09:25.347Z,500.63
2019-01-29T14:10:25.492Z,545.63
2019-01-29T14:12:29.645Z,815.63
2019-01-29T14:13:29.879Z,877.50
2019-01-29T14:15:34.024Z,686.25
2019-01-29T14:16:34.259Z,703.13
2019-01-29T14:18:38.428Z,1063.13
2019-01-29T14:19:38.668Z,1029.38
2019-01-29T14:21:42.845Z,787.50
2019-01-29T14:22:43.098Z,984.38
2019-01-29T14:24:47.320Z,675.00
2019-01-29T14:25:47.510Z,607.50
2019-01-29T14:27:51.677Z,523.13
2019-01-29T14:28:51.928Z,511.88
2019-01-29T14:30:56.095Z,495.00
2019-01-29T14:31:56.308Z,607.50
2019-01-29T14:34:00.476Z,1327.50
2019-01-29T14:35:00.714Z,798.75
2019-01-29T14:36:53.784Z,1254.38
2019-01-29T14:37:54.021Z,1299.38
2019-01-29T14:39:58.215Z,1108.13
2019-01-29T14:40:58.445Z,686.25
2019-01-29T14:43:02.610Z,528.75
2019-01-29T14:44:02.852Z,607.50
2019-01-29T14:46:07.014Z,663.75
2019-01-29T14:47:07.305Z,450.00
2019-01-29T14:49:11.465Z,556.88
2019-01-29T14:50:11.704Z,483.75
2019-01-29T14:52:15.872Z,540.00
2019-01-29T14:53:16.092Z,652.50
2019-01-29T14:55:20.370Z,641.25
2019-01-29T14:56:20.492Z,590.63
2019-01-29T14:58:24.656Z,528.75
2019-01-29T14:59:24.894Z,489.38
2019-01-29T15:01:29.039Z,433.13
2019-01-29T15:02:29.271Z,416.25
2019-01-29T15:04:33.435Z,365.63
2019-01-29T15:05:33.675Z,343.13
2019-01-29T15:07:37.817Z,286.88
2019-01-29T15:08:38.054Z,236.25
2019-01-29T15:10:42.217Z,202.50
2019-01-29T15:11:42.456Z,196.88
2019-01-29T15:13:46.634Z,174.38
2019-01-29T15:14:46.861Z,168.75
2019-01-29T15:16:39.936Z,157.50
2019-01-29T15:17:40.171Z,157.50
2019-01-29T15:19:44.338Z,146.25
2019-01-29T15:20:44.573Z,146.25
2019-01-29T15:22:48.717Z,135.00
2019-01-29T15:23:48.949Z,129.38
2019-01-29T15:25:53.114Z,129.38
2019-01-29T15:26:53.348Z,123.75
2019-01-29T15:28:57.487Z,106.88
2019-01-29T15:29:57.722Z,101.25
2019-01-29T15:32:01.885Z,95.63
2019-01-29T15:33:02.122Z,95.63
2019-01-29T15:35:06.283Z,90.00
2019-01-29T15:36:06.517Z,84.38
2019-01-29T15:38:10.656Z,78.75
2019-01-29T15:39:10.882Z,73.13
2019-01-29T15:41:15.039Z,61.88
2019-01-29T15:42:15.273Z,61.88
2019-01-29T15:44:19.476Z,50.63
2019-01-29T15:45:19.658Z,50.63
2019-01-29T15:47:23.818Z,45.00
2019-01-29T15:48:24.058Z,45.00
2019-01-29T15:50:28.218Z,39.38
2019-01-29T15:51:28.454Z,39.38
2019-01-29T15:53:32.596Z,33.75
2019-01-29T15:54:32.832Z,33.75
2019-01-29T15:56:26.373Z,28.13
2019-01-29T15:57:26.158Z,28.13
2019-01-29T15:59:30.298Z,22.50
2019-01-29T16:00:30.537Z,22.50
2019-01-29T16:02:34.699Z,16.88
2019-01-29T16:03:34.935Z,16.88
2019-01-29T16:05:39.100Z,16.88
2019-01-29T16:06:39.335Z,16.88
2019-01-29T16:08:43.474Z,11.25
2019-01-29T16:09:43.706Z,11.25
2019-01-29T16:11:47.861Z,11.25
2019-01-29T16:12:48.096Z,5.63
2019-01-29T16:14:52.235Z,5.63
2019-01-29T16:15:52.474Z,5.63
2019-01-29T16:17:56.633Z,0.00
2019-01-29T16:18:56.864Z,0.00
2019-01-29T16:21:01.024Z,0.00
2019-01-29T16:22:01.259Z,0.00
2019-01-29T16:24:05.392Z,0.00
2019-01-29T16:25:05.627Z,0.00
2019-01-29T16:27:06.440Z,0.00
2019-01-29T16:27:58.993Z,0.00
2019-01-29T16:30:03.131Z,0.00
2019-01-29T16:31:03.365Z,0.00
2019-01-29T16:33:07.523Z,0.00
2019-01-29T16:34:07.759Z,0.00
2019-01-29T16:36:11.918Z,0.00
2019-01-29T16:37:12.152Z,0.00
2019-01-29T16:39:16.287Z,0.00
2019-01-29T16:40:16.514Z,0.00
2019-01-29T16:42:20.673Z,0.00
2019-01-29T16:43:20.908Z,0.00
2019-01-29T16:45:25.043Z,0.00
2019-01-29T16:46:25.278Z,0.00
2019-01-29T16:48:29.435Z,0.00
2019-01-29T16:49:29.664Z,0.00
2019-01-29T16:51:41.875Z,0.00
2019-01-29T16:52:34.056Z,0.00
2019-01-29T16:54:38.194Z,0.00
2019-01-29T16:55:38.421Z,0.00
2019-01-29T16:57:42.576Z,0.00
2019-01-29T16:58:42.805Z,0.00
2019-01-29T17:00:46.940Z,0.00
2019-01-29T17:01:47.176Z,0.00
2019-01-29T17:03:51.331Z,0.00
2019-01-29T17:04:51.569Z,0.00
2019-01-29T17:06:44.654Z,0.00
2019-01-29T17:07:44.891Z,0.00
2019-01-29T17:09:49.025Z,0.00
2019-01-29T17:10:49.271Z,0.00
2019-01-29T17:12:53.447Z,0.00
2019-01-29T17:13:53.681Z,0.00
2019-01-29T17:15:57.823Z,0.00
2019-01-29T17:16:58.057Z,0.00
2019-01-29T17:19:02.218Z,0.00
2019-01-29T17:20:02.456Z,0.00
2019-01-29T17:22:06.614Z,0.00
2019-01-29T17:23:06.854Z,0.00
2019-01-29T17:25:10.993Z,0.00
2019-01-29T17:26:11.224Z,0.00
2019-01-29T17:28:15.385Z,0.00
2019-01-29T17:29:15.621Z,0.00
2019-01-29T17:31:19.758Z,0.00
2019-01-29T17:32:19.993Z,0.00
2019-01-29T17:34:24.148Z,0.00
2019-01-29T17:35:24.385Z,0.00
2019-01-29T17:37:28.542Z,0.00
2019-01-29T17:38:28.774Z,0.00
2019-01-29T17:40:32.907Z,0.00
2019-01-29T17:41:33.138Z,0.00
2019-01-29T17:43:37.292Z,0.00
2019-01-29T17:44:37.523Z,0.00
2019-01-29T17:46:31.317Z,0.00
2019-01-29T17:47:30.877Z,0.00
2019-01-29T17:49:35.034Z,0.00
2019-01-29T17:50:35.273Z,0.00
2019-01-29T17:52:39.401Z,0.00
2019-01-29T17:53:39.651Z,0.00
2019-01-29T17:55:43.792Z,0.00
2019-01-29T17:56:44.021Z,0.00
2019-01-29T17:58:48.177Z,0.00
2019-01-29T17:59:48.412Z,0.00
2019-01-29T18:01:52.551Z,0.00
2019-01-29T18:02:52.819Z,0.00
2019-01-29T18:04:56.978Z,0.00
2019-01-29T18:05:57.208Z,0.00
2019-01-29T18:08:01.391Z,0.00
2019-01-29T18:09:01.619Z,0.00
2019-01-29T18:11:05.782Z,0.00
2019-01-29T18:12:06.081Z,0.00
2019-01-29T18:14:10.239Z,0.00
2019-01-29T18:15:10.471Z,0.00
2019-01-29T18:17:14.604Z,0.00
2019-01-29T18:18:14.839Z,0.00
2019-01-29T18:20:19.045Z,0.00
2019-01-29T18:21:19.278Z,0.00
2019-01-29T18:23:23.412Z,0.00
2019-01-29T18:24:23.663Z,0.00
2019-01-29T18:26:16.829Z,0.00
2019-01-29T18:27:17.122Z,0.00
2019-01-29T18:29:21.357Z,0.00
2019-01-29T18:30:21.584Z,0.00
2019-01-29T18:32:25.723Z,0.00
2019-01-29T18:33:26.046Z,0.00
2019-01-29T18:35:30.232Z,0.00
2019-01-29T18:36:30.453Z,0.00
2019-01-29T18:38:34.619Z,0.00
2019-01-29T18:39:34.889Z,0.00
2019-01-29T18:41:39.052Z,0.00
2019-01-29T18:42:39.331Z,0.00
2019-01-29T18:44:43.592Z,0.00
2019-01-29T18:45:43.821Z,0.00
2019-01-29T18:47:47.958Z,0.00
2019-01-29T18:48:48.187Z,0.00
2019-01-29T18:50:52.401Z,0.00
2019-01-29T18:51:52.624Z,0.00
2019-01-29T18:53:56.761Z,0.00
2019-01-29T18:54:56.988Z,0.00
2019-01-29T18:56:50.072Z,0.00
2019-01-29T18:57:50.302Z,0.00
2019-01-29T18:59:54.464Z,0.00
2019-01-29T19:00:55.116Z,0.00
2019-01-29T19:02:58.824Z,0.00
2019-01-29T19:03:59.055Z,0.00
2019-01-29T19:06:03.253Z,0.00
2019-01-29T19:07:03.481Z,0.00
2019-01-29T19:09:07.609Z,0.00
2019-01-29T19:10:07.910Z,0.00
2019-01-29T19:12:12.082Z,0.00
2019-01-29T19:13:12.307Z,0.00
2019-01-29T19:15:16.454Z,0.00
2019-01-29T19:16:16.692Z,0.00
2019-01-29T19:18:20.825Z,0.00
2019-01-29T19:19:21.058Z,0.00
2019-01-29T19:21:25.219Z,0.00
2019-01-29T19:22:25.454Z,0.00
2019-01-29T19:24:29.638Z,0.00
2019-01-29T19:25:29.870Z,0.00
2019-01-29T19:27:34.027Z,0.00
2019-01-29T19:28:34.262Z,0.00
2019-01-29T19:30:38.417Z,0.00
2019-01-29T19:31:38.655Z,0.00
2019-01-29T19:33:42.794Z,0.00
2019-01-29T19:34:43.030Z,0.00
2019-01-29T19:36:36.112Z,0.00
2019-01-29T19:37:36.341Z,0.00
2019-01-29T19:39:40.503Z,0.00
2019-01-29T19:40:40.780Z,0.00
2019-01-29T19:42:44.942Z,0.00
2019-01-29T19:43:45.221Z,0.00
2019-01-29T19:45:49.432Z,0.00